sensor_id;sensor_type;location;lat;lon;timestamp;temperature;humidity
14769;DHT22;7476;49.404;11.152;2024-02-23T00:01:07;9.00;59.00
14769;DHT22;7476;49.404;11.152;2024-02-23T00:03:36;9.00;1.00
14769;DHT22;7476;49.404;11.152;2024-02-23T00:06:04;9.10;1.00
14769;DHT22;7476;49.404;11.152;2024-02-23T00:08:31;9.10;1.00
14769;DHT22;7476;49.404;11.152;2024-02-23T00:10:57;9.10;1.00
14769;DHT22;7476;49.404;11.152;2024-02-23T00:13:24;9.10;1.00
14769;DHT22;7476;49.404;11.152;2024-02-23T00:15:51;9.10;1.00
14769;DHT22;7476;49.404;11.152;2024-02-23T00:18:18;9.10;1.00
14769;DHT22;7476;49.404;11.152;2024-02-23T00:20:46;9.10;1.00
14769;DHT22;7476;49.404;11.152;2024-02-23T00:23:14;9.00;1.00
14769;DHT22;7476;49.404;11.152;2024-02-23T00:25:41;9.00;1.00
14769;DHT22;7476;49.404;11.152;2024-02-23T00:28:08;9.00;1.00
14769;DHT22;7476;49.404;11.152;2024-02-23T00:30:35;9.00;1.00
14769;DHT22;7476;49.404;11.152;2024-02-23T00:33:02;9.00;1.00
14769;DHT22;7476;49.404;11.152;2024-02-23T00:35:28;9.00;1.00
14769;DHT22;7476;49.404;11.152;2024-02-23T00:37:55;9.00;1.00
14769;DHT22;7476;49.404;11.152;2024-02-23T00:40:23;9.00;1.00
14769;DHT22;7476;49.404;11.152;2024-02-23T00:42:50;8.90;1.00
14769;DHT22;7476;49.404;11.152;2024-02-23T00:45:16;8.80;1.00
14769;DHT22;7476;49.404;11.152;2024-02-23T00:47:43;8.80;1.00
14769;DHT22;7476;49.404;11.152;2024-02-23T00:50:11;8.80;1.00
14769;DHT22;7476;49.404;11.152;2024-02-23T00:52:38;8.70;1.00
14769;DHT22;7476;49.404;11.152;2024-02-23T00:55:05;8.60;1.00
14769;DHT22;7476;49.404;11.152;2024-02-23T00:57:35;8.60;1.00
14769;DHT22;7476;49.404;11.152;2024-02-23T01:00:02;8.50;1.00
14769;DHT22;7476;49.404;11.152;2024-02-23T01:02:30;8.50;99.90
14769;DHT22;7476;49.404;11.152;2024-02-23T01:04:57;8.50;96.20
14769;DHT22;7476;49.404;11.152;2024-02-23T01:07:24;8.40;30.00
14769;DHT22;7476;49.404;11.152;2024-02-23T01:09:50;8.30;17.90
14769;DHT22;7476;49.404;11.152;2024-02-23T01:12:17;8.20;1.00
14769;DHT22;7476;49.404;11.152;2024-02-23T01:14:45;8.10;1.00
14769;DHT22;7476;49.404;11.152;2024-02-23T01:17:13;8.10;1.00
14769;DHT22;7476;49.404;11.152;2024-02-23T01:19:40;8.00;1.00
14769;DHT22;7476;49.404;11.152;2024-02-23T01:22:07;7.90;1.00
14769;DHT22;7476;49.404;11.152;2024-02-23T01:24:34;7.80;1.00
14769;DHT22;7476;49.404;11.152;2024-02-23T01:27:00;7.70;1.00
14769;DHT22;7476;49.404;11.152;2024-02-23T01:29:27;7.70;64.70
14769;DHT22;7476;49.404;11.152;2024-02-23T01:31:55;7.60;99.90
14769;DHT22;7476;49.404;11.152;2024-02-23T01:34:22;7.60;1.00
14769;DHT22;7476;49.404;11.152;2024-02-23T01:36:48;7.50;35.00
14769;DHT22;7476;49.404;11.152;2024-02-23T01:39:15;7.50;99.90
14769;DHT22;7476;49.404;11.152;2024-02-23T01:41:42;7.50;27.10
14769;DHT22;7476;49.404;11.152;2024-02-23T01:44:09;7.40;99.90
14769;DHT22;7476;49.404;11.152;2024-02-23T01:46:36;7.40;99.90
14769;DHT22;7476;49.404;11.152;2024-02-23T01:49:06;7.30;99.90
14769;DHT22;7476;49.404;11.152;2024-02-23T01:51:34;7.30;99.90
14769;DHT22;7476;49.404;11.152;2024-02-23T01:54:01;7.20;99.90
14769;DHT22;7476;49.404;11.152;2024-02-23T01:56:28;7.20;1.00
14769;DHT22;7476;49.404;11.152;2024-02-23T01:58:55;7.10;99.90
14769;DHT22;7476;49.404;11.152;2024-02-23T02:01:22;7.00;1.00
14769;DHT22;7476;49.404;11.152;2024-02-23T02:03:49;6.90;1.00
14769;DHT22;7476;49.404;11.152;2024-02-23T02:06:17;6.90;1.00
14769;DHT22;7476;49.404;11.152;2024-02-23T02:08:44;6.90;1.00
14769;DHT22;7476;49.404;11.152;2024-02-23T02:11:11;6.90;1.00
14769;DHT22;7476;49.404;11.152;2024-02-23T02:13:38;6.90;1.00
14769;DHT22;7476;49.404;11.152;2024-02-23T02:16:05;6.90;1.00
14769;DHT22;7476;49.404;11.152;2024-02-23T02:18:32;6.80;1.00
14769;DHT22;7476;49.404;11.152;2024-02-23T02:20:58;6.70;1.00
14769;DHT22;7476;49.404;11.152;2024-02-23T02:23:27;6.70;1.00
14769;DHT22;7476;49.404;11.152;2024-02-23T02:25:54;6.80;1.00
14769;DHT22;7476;49.404;11.152;2024-02-23T02:28:21;6.80;1.00
14769;DHT22;7476;49.404;11.152;2024-02-23T02:30:48;6.80;1.00
14769;DHT22;7476;49.404;11.152;2024-02-23T02:33:15;6.80;1.00
14769;DHT22;7476;49.404;11.152;2024-02-23T02:35:42;6.80;1.00
14769;DHT22;7476;49.404;11.152;2024-02-23T02:38:09;6.70;1.00
14769;DHT22;7476;49.404;11.152;2024-02-23T02:40:38;6.70;1.00
14769;DHT22;7476;49.404;11.152;2024-02-23T02:43:04;6.80;1.00
14769;DHT22;7476;49.404;11.152;2024-02-23T02:45:32;6.70;1.00
14769;DHT22;7476;49.404;11.152;2024-02-23T02:47:59;6.70;1.00
14769;DHT22;7476;49.404;11.152;2024-02-23T02:50:26;6.60;1.00
14769;DHT22;7476;49.404;11.152;2024-02-23T02:52:53;6.60;1.00
14769;DHT22;7476;49.404;11.152;2024-02-23T02:55:20;6.60;1.00
14769;DHT22;7476;49.404;11.152;2024-02-23T02:57:48;6.60;1.00
14769;DHT22;7476;49.404;11.152;2024-02-23T03:00:15;6.60;1.00
14769;DHT22;7476;49.404;11.152;2024-02-23T03:02:41;6.60;1.00
14769;DHT22;7476;49.404;11.152;2024-02-23T03:05:08;6.60;1.00
14769;DHT22;7476;49.404;11.152;2024-02-23T03:07:35;6.50;1.00
14769;DHT22;7476;49.404;11.152;2024-02-23T03:10:01;6.50;1.00
14769;DHT22;7476;49.404;11.152;2024-02-23T03:12:28;6.40;1.00
14769;DHT22;7476;49.404;11.152;2024-02-23T03:14:56;6.30;1.00
14769;DHT22;7476;49.404;11.152;2024-02-23T03:17:23;6.30;1.00
14769;DHT22;7476;49.404;11.152;2024-02-23T03:19:50;6.30;1.00
14769;DHT22;7476;49.404;11.152;2024-02-23T03:22:16;6.20;1.00
14769;DHT22;7476;49.404;11.152;2024-02-23T03:24:43;6.30;1.00
14769;DHT22;7476;49.404;11.152;2024-02-23T03:27:10;6.30;1.00
14769;DHT22;7476;49.404;11.152;2024-02-23T03:29:38;6.30;1.00
14769;DHT22;7476;49.404;11.152;2024-02-23T03:32:07;6.40;1.00
14769;DHT22;7476;49.404;11.152;2024-02-23T03:34:35;6.40;1.00
14769;DHT22;7476;49.404;11.152;2024-02-23T03:37:02;6.40;1.00
14769;DHT22;7476;49.404;11.152;2024-02-23T03:39:28;6.30;1.00
14769;DHT22;7476;49.404;11.152;2024-02-23T03:41:55;6.30;1.00
14769;DHT22;7476;49.404;11.152;2024-02-23T03:44:22;6.20;1.00
14769;DHT22;7476;49.404;11.152;2024-02-23T03:46:48;6.10;1.00
14769;DHT22;7476;49.404;11.152;2024-02-23T03:49:16;6.20;1.00
14769;DHT22;7476;49.404;11.152;2024-02-23T03:51:43;6.10;1.00
14769;DHT22;7476;49.404;11.152;2024-02-23T03:54:10;6.10;1.00
14769;DHT22;7476;49.404;11.152;2024-02-23T03:56:39;6.00;1.00
14769;DHT22;7476;49.404;11.152;2024-02-23T03:59:06;6.10;1.00
14769;DHT22;7476;49.404;11.152;2024-02-23T04:01:35;6.00;1.00
14769;DHT22;7476;49.404;11.152;2024-02-23T04:04:02;6.00;1.00
14769;DHT22;7476;49.404;11.152;2024-02-23T04:06:30;5.90;1.00
14769;DHT22;7476;49.404;11.152;2024-02-23T04:08:56;5.90;1.00
14769;DHT22;7476;49.404;11.152;2024-02-23T04:11:23;6.00;1.00
14769;DHT22;7476;49.404;11.152;2024-02-23T04:13:50;5.90;1.00
14769;DHT22;7476;49.404;11.152;2024-02-23T04:16:17;6.00;1.00
14769;DHT22;7476;49.404;11.152;2024-02-23T04:18:43;5.90;1.00
14769;DHT22;7476;49.404;11.152;2024-02-23T04:21:10;5.90;1.00
14769;DHT22;7476;49.404;11.152;2024-02-23T04:23:38;5.80;1.00
14769;DHT22;7476;49.404;11.152;2024-02-23T04:26:04;5.80;1.00
14769;DHT22;7476;49.404;11.152;2024-02-23T04:28:31;5.80;1.00
14769;DHT22;7476;49.404;11.152;2024-02-23T04:30:59;5.80;1.00
14769;DHT22;7476;49.404;11.152;2024-02-23T04:33:26;5.80;1.00
14769;DHT22;7476;49.404;11.152;2024-02-23T04:35:52;5.80;1.00
14769;DHT22;7476;49.404;11.152;2024-02-23T04:38:19;5.80;1.00
14769;DHT22;7476;49.404;11.152;2024-02-23T04:40:47;5.80;99.90
14769;DHT22;7476;49.404;11.152;2024-02-23T04:43:14;5.80;1.00
14769;DHT22;7476;49.404;11.152;2024-02-23T04:45:40;5.80;99.90
14769;DHT22;7476;49.404;11.152;2024-02-23T04:48:07;5.80;99.90
14769;DHT22;7476;49.404;11.152;2024-02-23T04:50:34;5.80;99.90
14769;DHT22;7476;49.404;11.152;2024-02-23T04:53:01;5.70;99.90
14769;DHT22;7476;49.404;11.152;2024-02-23T04:55:27;5.80;99.90
14769;DHT22;7476;49.404;11.152;2024-02-23T04:57:55;5.80;99.90
14769;DHT22;7476;49.404;11.152;2024-02-23T05:00:22;5.80;99.90
14769;DHT22;7476;49.404;11.152;2024-02-23T05:02:48;5.80;71.20
14769;DHT22;7476;49.404;11.152;2024-02-23T05:05:15;5.80;1.00
14769;DHT22;7476;49.404;11.152;2024-02-23T05:07:42;5.80;1.00
14769;DHT22;7476;49.404;11.152;2024-02-23T05:10:09;5.80;1.00
14769;DHT22;7476;49.404;11.152;2024-02-23T05:12:36;5.80;1.00
14769;DHT22;7476;49.404;11.152;2024-02-23T05:15:05;5.70;99.90
14769;DHT22;7476;49.404;11.152;2024-02-23T05:17:31;5.60;99.90
14769;DHT22;7476;49.404;11.152;2024-02-23T05:19:58;5.50;99.90
14769;DHT22;7476;49.404;11.152;2024-02-23T05:22:25;5.60;99.90
14769;DHT22;7476;49.404;11.152;2024-02-23T05:24:51;5.60;99.90
14769;DHT22;7476;49.404;11.152;2024-02-23T05:27:18;5.50;99.90
14769;DHT22;7476;49.404;11.152;2024-02-23T05:29:45;5.40;99.90
14769;DHT22;7476;49.404;11.152;2024-02-23T05:32:13;5.40;99.90
14769;DHT22;7476;49.404;11.152;2024-02-23T05:34:39;5.40;99.90
14769;DHT22;7476;49.404;11.152;2024-02-23T05:37:06;5.40;99.90
14769;DHT22;7476;49.404;11.152;2024-02-23T05:39:33;5.40;99.90
14769;DHT22;7476;49.404;11.152;2024-02-23T05:41:59;5.20;1.00
14769;DHT22;7476;49.404;11.152;2024-02-23T05:44:26;5.20;1.00
14769;DHT22;7476;49.404;11.152;2024-02-23T05:46:54;5.20;1.00
14769;DHT22;7476;49.404;11.152;2024-02-23T05:49:22;5.10;1.00
14769;DHT22;7476;49.404;11.152;2024-02-23T05:51:48;5.10;1.00
14769;DHT22;7476;49.404;11.152;2024-02-23T05:54:15;5.00;1.00
14769;DHT22;7476;49.404;11.152;2024-02-23T05:56:43;5.00;1.00
14769;DHT22;7476;49.404;11.152;2024-02-23T05:59:10;5.00;1.00
14769;DHT22;7476;49.404;11.152;2024-02-23T06:01:36;5.00;1.00
14769;DHT22;7476;49.404;11.152;2024-02-23T06:04:03;5.00;1.00
14769;DHT22;7476;49.404;11.152;2024-02-23T06:06:32;5.00;1.00
14769;DHT22;7476;49.404;11.152;2024-02-23T06:08:58;5.00;1.00
14769;DHT22;7476;49.404;11.152;2024-02-23T06:11:26;4.90;1.00
14769;DHT22;7476;49.404;11.152;2024-02-23T06:13:53;4.90;1.00
14769;DHT22;7476;49.404;11.152;2024-02-23T06:16:21;4.80;1.00
14769;DHT22;7476;49.404;11.152;2024-02-23T06:18:47;4.80;1.00
14769;DHT22;7476;49.404;11.152;2024-02-23T06:21:17;4.80;1.00
14769;DHT22;7476;49.404;11.152;2024-02-23T06:23:45;4.80;1.00
14769;DHT22;7476;49.404;11.152;2024-02-23T06:26:12;4.80;1.00
14769;DHT22;7476;49.404;11.152;2024-02-23T06:28:39;4.80;1.00
14769;DHT22;7476;49.404;11.152;2024-02-23T06:31:07;4.80;1.00
14769;DHT22;7476;49.404;11.152;2024-02-23T06:33:34;4.70;1.00
14769;DHT22;7476;49.404;11.152;2024-02-23T06:36:00;4.70;1.00
14769;DHT22;7476;49.404;11.152;2024-02-23T06:38:28;4.60;1.00
14769;DHT22;7476;49.404;11.152;2024-02-23T06:40:57;4.60;1.00
14769;DHT22;7476;49.404;11.152;2024-02-23T06:43:23;4.50;1.00
14769;DHT22;7476;49.404;11.152;2024-02-23T06:45:50;4.50;1.00
14769;DHT22;7476;49.404;11.152;2024-02-23T06:48:17;4.50;1.00
14769;DHT22;7476;49.404;11.152;2024-02-23T06:50:44;4.60;1.00
14769;DHT22;7476;49.404;11.152;2024-02-23T06:53:10;4.60;1.00
14769;DHT22;7476;49.404;11.152;2024-02-23T06:55:37;4.60;1.00
14769;DHT22;7476;49.404;11.152;2024-02-23T06:58:05;4.60;1.00
14769;DHT22;7476;49.404;11.152;2024-02-23T07:00:32;4.60;1.00
14769;DHT22;7476;49.404;11.152;2024-02-23T07:02:59;4.70;1.00
14769;DHT22;7476;49.404;11.152;2024-02-23T07:05:29;4.70;1.00
14769;DHT22;7476;49.404;11.152;2024-02-23T07:07:55;4.70;1.00
14769;DHT22;7476;49.404;11.152;2024-02-23T07:10:22;4.70;1.00
14769;DHT22;7476;49.404;11.152;2024-02-23T07:12:50;4.70;1.00
14769;DHT22;7476;49.404;11.152;2024-02-23T07:15:20;4.70;1.00
14769;DHT22;7476;49.404;11.152;2024-02-23T07:17:46;4.80;1.00
14769;DHT22;7476;49.404;11.152;2024-02-23T07:20:14;4.80;1.00
14769;DHT22;7476;49.404;11.152;2024-02-23T07:22:43;4.90;1.00
14769;DHT22;7476;49.404;11.152;2024-02-23T07:25:10;4.90;1.00
14769;DHT22;7476;49.404;11.152;2024-02-23T07:27:37;5.00;1.00
14769;DHT22;7476;49.404;11.152;2024-02-23T07:30:04;5.00;1.00
14769;DHT22;7476;49.404;11.152;2024-02-23T07:32:32;5.00;1.00
14769;DHT22;7476;49.404;11.152;2024-02-23T07:34:59;5.20;1.00
14769;DHT22;7476;49.404;11.152;2024-02-23T07:37:26;5.20;1.00
14769;DHT22;7476;49.404;11.152;2024-02-23T07:39:53;5.30;1.00
14769;DHT22;7476;49.404;11.152;2024-02-23T07:42:19;5.40;1.00
14769;DHT22;7476;49.404;11.152;2024-02-23T07:44:46;5.50;1.00
14769;DHT22;7476;49.404;11.152;2024-02-23T07:47:13;5.60;1.00
14769;DHT22;7476;49.404;11.152;2024-02-23T07:49:41;5.70;1.00
14769;DHT22;7476;49.404;11.152;2024-02-23T07:52:07;5.70;1.00
14769;DHT22;7476;49.404;11.152;2024-02-23T07:54:34;5.70;1.00
14769;DHT22;7476;49.404;11.152;2024-02-23T07:57:00;5.70;1.00
14769;DHT22;7476;49.404;11.152;2024-02-23T07:59:29;5.80;1.00
14769;DHT22;7476;49.404;11.152;2024-02-23T08:01:56;5.80;1.00
14769;DHT22;7476;49.404;11.152;2024-02-23T08:04:23;5.80;1.00
14769;DHT22;7476;49.404;11.152;2024-02-23T08:06:51;5.80;1.00
14769;DHT22;7476;49.404;11.152;2024-02-23T08:09:18;5.80;1.00
14769;DHT22;7476;49.404;11.152;2024-02-23T08:11:44;5.80;1.00
14769;DHT22;7476;49.404;11.152;2024-02-23T08:14:12;5.80;1.00
14769;DHT22;7476;49.404;11.152;2024-02-23T08:16:38;5.80;1.00
14769;DHT22;7476;49.404;11.152;2024-02-23T08:19:05;5.90;1.00
14769;DHT22;7476;49.404;11.152;2024-02-23T08:21:31;6.00;1.00
14769;DHT22;7476;49.404;11.152;2024-02-23T08:23:59;6.20;1.00
14769;DHT22;7476;49.404;11.152;2024-02-23T08:26:26;6.20;1.00
14769;DHT22;7476;49.404;11.152;2024-02-23T08:28:53;6.30;1.00
14769;DHT22;7476;49.404;11.152;2024-02-23T08:31:20;6.50;1.00
14769;DHT22;7476;49.404;11.152;2024-02-23T08:33:47;6.60;1.00
14769;DHT22;7476;49.404;11.152;2024-02-23T08:36:13;6.70;1.00
14769;DHT22;7476;49.404;11.152;2024-02-23T08:38:40;6.70;1.00
14769;DHT22;7476;49.404;11.152;2024-02-23T08:41:08;6.80;1.00
14769;DHT22;7476;49.404;11.152;2024-02-23T08:43:35;6.90;1.00
14769;DHT22;7476;49.404;11.152;2024-02-23T08:46:02;7.00;1.00
14769;DHT22;7476;49.404;11.152;2024-02-23T08:48:28;7.00;1.00
14769;DHT22;7476;49.404;11.152;2024-02-23T08:50:55;7.10;99.90
14769;DHT22;7476;49.404;11.152;2024-02-23T08:53:21;7.20;99.90
14769;DHT22;7476;49.404;11.152;2024-02-23T08:55:48;7.00;47.50
14769;DHT22;7476;49.404;11.152;2024-02-23T08:58:16;6.90;99.90
14769;DHT22;7476;49.404;11.152;2024-02-23T09:00:43;7.00;99.90
14769;DHT22;7476;49.404;11.152;2024-02-23T09:03:09;7.00;99.90
14769;DHT22;7476;49.404;11.152;2024-02-23T09:05:36;7.10;99.90
14769;DHT22;7476;49.404;11.152;2024-02-23T09:08:03;7.00;1.00
14769;DHT22;7476;49.404;11.152;2024-02-23T09:10:30;7.10;1.00
14769;DHT22;7476;49.404;11.152;2024-02-23T09:12:56;7.10;1.00
14769;DHT22;7476;49.404;11.152;2024-02-23T09:15:24;7.30;99.90
14769;DHT22;7476;49.404;11.152;2024-02-23T09:17:51;7.40;75.00
14769;DHT22;7476;49.404;11.152;2024-02-23T09:20:18;7.30;1.00
14769;DHT22;7476;49.404;11.152;2024-02-23T09:22:44;7.20;1.00
14769;DHT22;7476;49.404;11.152;2024-02-23T09:25:11;7.20;1.00
14769;DHT22;7476;49.404;11.152;2024-02-23T09:27:38;7.20;99.90
14769;DHT22;7476;49.404;11.152;2024-02-23T09:30:10;7.10;1.00
14769;DHT22;7476;49.404;11.152;2024-02-23T09:32:38;7.10;1.00
14769;DHT22;7476;49.404;11.152;2024-02-23T09:35:05;7.10;1.00
14769;DHT22;7476;49.404;11.152;2024-02-23T09:37:32;7.10;99.90
14769;DHT22;7476;49.404;11.152;2024-02-23T09:39:59;7.10;1.00
14769;DHT22;7476;49.404;11.152;2024-02-23T09:42:28;7.10;1.00
14769;DHT22;7476;49.404;11.152;2024-02-23T09:44:58;7.10;1.00
14769;DHT22;7476;49.404;11.152;2024-02-23T09:47:26;7.20;1.00
14769;DHT22;7476;49.404;11.152;2024-02-23T09:49:55;7.30;1.00
14769;DHT22;7476;49.404;11.152;2024-02-23T09:52:22;7.40;1.00
14769;DHT22;7476;49.404;11.152;2024-02-23T09:54:49;7.40;1.00
14769;DHT22;7476;49.404;11.152;2024-02-23T09:57:16;7.40;1.00
14769;DHT22;7476;49.404;11.152;2024-02-23T09:59:43;7.40;1.00
14769;DHT22;7476;49.404;11.152;2024-02-23T10:02:15;7.50;1.00
14769;DHT22;7476;49.404;11.152;2024-02-23T10:04:43;7.60;1.00
14769;DHT22;7476;49.404;11.152;2024-02-23T10:07:14;7.50;1.00
14769;DHT22;7476;49.404;11.152;2024-02-23T10:09:41;7.50;1.00
14769;DHT22;7476;49.404;11.152;2024-02-23T10:12:08;7.50;1.00
14769;DHT22;7476;49.404;11.152;2024-02-23T10:14:35;7.50;1.00
14769;DHT22;7476;49.404;11.152;2024-02-23T10:17:01;7.50;1.00
14769;DHT22;7476;49.404;11.152;2024-02-23T10:19:28;7.50;1.00
14769;DHT22;7476;49.404;11.152;2024-02-23T10:21:55;7.50;1.00
14769;DHT22;7476;49.404;11.152;2024-02-23T10:24:24;7.60;1.00
14769;DHT22;7476;49.404;11.152;2024-02-23T10:26:51;7.70;1.00
14769;DHT22;7476;49.404;11.152;2024-02-23T10:29:18;7.70;1.00
14769;DHT22;7476;49.404;11.152;2024-02-23T10:31:46;7.70;1.00
14769;DHT22;7476;49.404;11.152;2024-02-23T10:34:17;7.70;1.00
14769;DHT22;7476;49.404;11.152;2024-02-23T10:36:45;7.70;1.00
14769;DHT22;7476;49.404;11.152;2024-02-23T10:39:15;7.70;1.00
14769;DHT22;7476;49.404;11.152;2024-02-23T10:41:47;7.60;1.00
14769;DHT22;7476;49.404;11.152;2024-02-23T10:44:16;7.60;1.00
14769;DHT22;7476;49.404;11.152;2024-02-23T10:46:43;7.50;1.00
14769;DHT22;7476;49.404;11.152;2024-02-23T10:49:11;7.50;1.00
14769;DHT22;7476;49.404;11.152;2024-02-23T10:51:39;7.60;1.00
14769;DHT22;7476;49.404;11.152;2024-02-23T10:54:06;7.60;1.00
14769;DHT22;7476;49.404;11.152;2024-02-23T10:56:33;7.60;1.00
14769;DHT22;7476;49.404;11.152;2024-02-23T10:59:01;7.60;1.00
14769;DHT22;7476;49.404;11.152;2024-02-23T11:01:28;7.70;1.00
14769;DHT22;7476;49.404;11.152;2024-02-23T11:03:56;7.80;1.00
14769;DHT22;7476;49.404;11.152;2024-02-23T11:06:27;7.90;1.00
14769;DHT22;7476;49.404;11.152;2024-02-23T11:09:04;8.00;1.00
14769;DHT22;7476;49.404;11.152;2024-02-23T11:11:32;8.00;1.00
14769;DHT22;7476;49.404;11.152;2024-02-23T11:14:03;7.90;1.00
14769;DHT22;7476;49.404;11.152;2024-02-23T11:16:38;8.00;1.00
14769;DHT22;7476;49.404;11.152;2024-02-23T11:19:06;8.00;99.90
14769;DHT22;7476;49.404;11.152;2024-02-23T11:21:35;8.10;1.00
14769;DHT22;7476;49.404;11.152;2024-02-23T11:24:03;8.20;1.00
14769;DHT22;7476;49.404;11.152;2024-02-23T11:26:30;8.30;1.00
14769;DHT22;7476;49.404;11.152;2024-02-23T11:28:57;8.30;99.90
14769;DHT22;7476;49.404;11.152;2024-02-23T11:31:30;8.30;99.90
14769;DHT22;7476;49.404;11.152;2024-02-23T11:33:57;8.30;1.00
14769;DHT22;7476;49.404;11.152;2024-02-23T11:36:27;8.40;99.90
14769;DHT22;7476;49.404;11.152;2024-02-23T11:38:55;8.30;99.90
14769;DHT22;7476;49.404;11.152;2024-02-23T11:41:23;8.50;1.00
14769;DHT22;7476;49.404;11.152;2024-02-23T11:43:50;8.40;99.90
14769;DHT22;7476;49.404;11.152;2024-02-23T11:46:17;8.40;99.90
14769;DHT22;7476;49.404;11.152;2024-02-23T11:48:46;8.50;1.00
14769;DHT22;7476;49.404;11.152;2024-02-23T11:51:18;8.60;1.00
14769;DHT22;7476;49.404;11.152;2024-02-23T11:53:45;8.50;1.00
14769;DHT22;7476;49.404;11.152;2024-02-23T11:56:12;8.50;1.00
14769;DHT22;7476;49.404;11.152;2024-02-23T11:58:39;8.40;1.00
14769;DHT22;7476;49.404;11.152;2024-02-23T12:01:06;8.30;1.00
14769;DHT22;7476;49.404;11.152;2024-02-23T12:03:33;8.30;1.00
14769;DHT22;7476;49.404;11.152;2024-02-23T12:06:02;8.20;1.00
14769;DHT22;7476;49.404;11.152;2024-02-23T12:08:30;8.20;1.00
14769;DHT22;7476;49.404;11.152;2024-02-23T12:11:03;8.20;1.00
14769;DHT22;7476;49.404;11.152;2024-02-23T12:13:30;8.30;1.00
14769;DHT22;7476;49.404;11.152;2024-02-23T12:15:57;8.30;1.00
14769;DHT22;7476;49.404;11.152;2024-02-23T12:18:24;8.30;1.00
14769;DHT22;7476;49.404;11.152;2024-02-23T12:20:51;8.20;1.00
14769;DHT22;7476;49.404;11.152;2024-02-23T12:23:19;8.20;1.00
14769;DHT22;7476;49.404;11.152;2024-02-23T12:25:52;8.30;1.00
14769;DHT22;7476;49.404;11.152;2024-02-23T12:28:19;8.40;1.00
14769;DHT22;7476;49.404;11.152;2024-02-23T12:30:46;8.30;96.50
14769;DHT22;7476;49.404;11.152;2024-02-23T12:33:15;8.30;1.00
14769;DHT22;7476;49.404;11.152;2024-02-23T12:35:42;8.40;1.00
14769;DHT22;7476;49.404;11.152;2024-02-23T12:38:08;8.50;25.00
14769;DHT22;7476;49.404;11.152;2024-02-23T12:40:36;8.60;99.90
14769;DHT22;7476;49.404;11.152;2024-02-23T12:43:03;8.50;1.00
14769;DHT22;7476;49.404;11.152;2024-02-23T12:45:30;8.40;1.00
14769;DHT22;7476;49.404;11.152;2024-02-23T12:47:57;8.30;1.00
14769;DHT22;7476;49.404;11.152;2024-02-23T12:50:23;8.20;99.90
14769;DHT22;7476;49.404;11.152;2024-02-23T12:52:50;8.20;1.00
14769;DHT22;7476;49.404;11.152;2024-02-23T12:55:17;8.20;1.00
14769;DHT22;7476;49.404;11.152;2024-02-23T12:57:45;8.20;1.00
14769;DHT22;7476;49.404;11.152;2024-02-23T13:00:13;8.30;1.00
14769;DHT22;7476;49.404;11.152;2024-02-23T13:02:40;8.30;1.00
14769;DHT22;7476;49.404;11.152;2024-02-23T13:05:07;8.20;1.00
14769;DHT22;7476;49.404;11.152;2024-02-23T13:07:34;8.20;1.00
14769;DHT22;7476;49.404;11.152;2024-02-23T13:10:00;8.20;1.00
14769;DHT22;7476;49.404;11.152;2024-02-23T13:12:27;8.20;1.00
14769;DHT22;7476;49.404;11.152;2024-02-23T13:14:55;8.10;1.00
14769;DHT22;7476;49.404;11.152;2024-02-23T13:17:21;8.10;1.00
14769;DHT22;7476;49.404;11.152;2024-02-23T13:19:49;8.10;1.00
14769;DHT22;7476;49.404;11.152;2024-02-23T13:22:16;8.00;1.00
14769;DHT22;7476;49.404;11.152;2024-02-23T13:24:42;8.00;1.00
14769;DHT22;7476;49.404;11.152;2024-02-23T13:27:09;8.00;1.00
14769;DHT22;7476;49.404;11.152;2024-02-23T13:29:36;8.00;1.00
14769;DHT22;7476;49.404;11.152;2024-02-23T13:32:04;8.10;1.00
14769;DHT22;7476;49.404;11.152;2024-02-23T13:34:31;8.20;1.00
14769;DHT22;7476;49.404;11.152;2024-02-23T13:36:57;8.20;1.00
14769;DHT22;7476;49.404;11.152;2024-02-23T13:39:24;8.20;1.00
14769;DHT22;7476;49.404;11.152;2024-02-23T13:41:51;8.30;1.00
14769;DHT22;7476;49.404;11.152;2024-02-23T13:44:17;8.30;1.00
14769;DHT22;7476;49.404;11.152;2024-02-23T13:46:44;8.30;1.00
14769;DHT22;7476;49.404;11.152;2024-02-23T13:49:12;8.40;99.90
14769;DHT22;7476;49.404;11.152;2024-02-23T13:51:39;8.40;1.00
14769;DHT22;7476;49.404;11.152;2024-02-23T13:54:06;8.30;99.90
14769;DHT22;7476;49.404;11.152;2024-02-23T13:56:32;8.20;99.90
14769;DHT22;7476;49.404;11.152;2024-02-23T13:58:59;8.10;99.90
14769;DHT22;7476;49.404;11.152;2024-02-23T14:01:26;8.20;99.90
14769;DHT22;7476;49.404;11.152;2024-02-23T14:03:53;8.10;99.90
14769;DHT22;7476;49.404;11.152;2024-02-23T14:06:21;8.00;99.90
14769;DHT22;7476;49.404;11.152;2024-02-23T14:08:48;8.00;99.90
14769;DHT22;7476;49.404;11.152;2024-02-23T14:11:14;8.10;99.90
14769;DHT22;7476;49.404;11.152;2024-02-23T14:13:41;8.10;1.00
14769;DHT22;7476;49.404;11.152;2024-02-23T14:16:09;8.00;99.90
14769;DHT22;7476;49.404;11.152;2024-02-23T14:18:36;8.00;1.00
14769;DHT22;7476;49.404;11.152;2024-02-23T14:21:05;8.00;1.00
14769;DHT22;7476;49.404;11.152;2024-02-23T14:23:33;8.00;1.00
14769;DHT22;7476;49.404;11.152;2024-02-23T14:26:00;8.00;1.00
14769;DHT22;7476;49.404;11.152;2024-02-23T14:28:27;8.00;1.00
14769;DHT22;7476;49.404;11.152;2024-02-23T14:30:53;7.90;1.00
14769;DHT22;7476;49.404;11.152;2024-02-23T14:33:20;8.00;1.00
14769;DHT22;7476;49.404;11.152;2024-02-23T14:35:47;8.10;1.00
14769;DHT22;7476;49.404;11.152;2024-02-23T14:38:14;8.10;1.00
14769;DHT22;7476;49.404;11.152;2024-02-23T14:40:42;8.10;1.00
14769;DHT22;7476;49.404;11.152;2024-02-23T14:43:09;8.10;1.00
14769;DHT22;7476;49.404;11.152;2024-02-23T14:45:36;8.10;1.00
14769;DHT22;7476;49.404;11.152;2024-02-23T14:48:04;8.10;1.00
14769;DHT22;7476;49.404;11.152;2024-02-23T14:50:30;7.90;1.00
14769;DHT22;7476;49.404;11.152;2024-02-23T14:52:57;7.90;1.00
14769;DHT22;7476;49.404;11.152;2024-02-23T14:55:24;7.80;1.00
14769;DHT22;7476;49.404;11.152;2024-02-23T14:57:52;7.80;1.00
14769;DHT22;7476;49.404;11.152;2024-02-23T15:00:18;7.80;1.00
14769;DHT22;7476;49.404;11.152;2024-02-23T15:02:45;7.70;1.00
14769;DHT22;7476;49.404;11.152;2024-02-23T15:05:13;7.60;1.00
14769;DHT22;7476;49.404;11.152;2024-02-23T15:07:39;7.50;1.00
14769;DHT22;7476;49.404;11.152;2024-02-23T15:10:07;7.40;1.00
14769;DHT22;7476;49.404;11.152;2024-02-23T15:12:34;7.40;1.00
14769;DHT22;7476;49.404;11.152;2024-02-23T15:15:03;7.40;1.00
14769;DHT22;7476;49.404;11.152;2024-02-23T15:17:30;7.40;1.00
14769;DHT22;7476;49.404;11.152;2024-02-23T15:19:57;7.40;1.00
14769;DHT22;7476;49.404;11.152;2024-02-23T15:22:24;7.30;1.00
14769;DHT22;7476;49.404;11.152;2024-02-23T15:24:51;7.30;1.00
14769;DHT22;7476;49.404;11.152;2024-02-23T15:27:18;7.20;1.00
14769;DHT22;7476;49.404;11.152;2024-02-23T15:29:45;7.10;17.60
14769;DHT22;7476;49.404;11.152;2024-02-23T15:32:13;7.10;99.90
14769;DHT22;7476;49.404;11.152;2024-02-23T15:34:40;7.00;99.90
14769;DHT22;7476;49.404;11.152;2024-02-23T15:37:07;7.00;99.90
14769;DHT22;7476;49.404;11.152;2024-02-23T15:39:34;7.00;99.90
14769;DHT22;7476;49.404;11.152;2024-02-23T15:42:00;7.00;99.90
14769;DHT22;7476;49.404;11.152;2024-02-23T15:44:27;7.00;99.90
14769;DHT22;7476;49.404;11.152;2024-02-23T15:46:54;6.90;99.90
14769;DHT22;7476;49.404;11.152;2024-02-23T15:49:22;6.80;99.90
14769;DHT22;7476;49.404;11.152;2024-02-23T15:51:50;6.70;99.90
14769;DHT22;7476;49.404;11.152;2024-02-23T15:54:16;6.70;99.90
14769;DHT22;7476;49.404;11.152;2024-02-23T15:56:43;6.60;1.00
14769;DHT22;7476;49.404;11.152;2024-02-23T15:59:09;6.50;1.00